Time,TemperatureF,DewpointF,PressureIn,WindDirection,WindDirectionDegrees,WindSpeedMPH,WindSpeedGustMPH,Humidity,HourlyPrecipIn,Conditions,Clouds,dailyrainin,SoftwareType,DateUTC
2013-02-20 00:00:00,59.7,56.5,30.06,SSW,197,0.0,11.0,89,0.00,,,0.00,Wunderground v.1.15,2013-02-20 05:00:00,
2013-02-20 00:10:00,59.2,55.6,30.07,SSW,197,0.0,11.0,88,0.00,,,0.00,Wunderground v.1.15,2013-02-20 05:10:00,
2013-02-20 00:15:00,59.0,55.4,30.07,SSW,197,0.0,11.0,88,0.00,,,0.00,Wunderground v.1.15,2013-02-20 05:15:00,
2013-02-20 00:20:00,58.8,55.3,30.07,SSW,197,0.0,11.0,88,0.00,,,0.00,Wunderground v.1.15,2013-02-20 05:20:00,
2013-02-20 07:50:00,60.0,53.5,30.10,North,9,4.0,4.0,79,0.00,,,0.00,Wunderground v.1.15,2013-02-20 12:50:00,
2013-02-20 08:00:00,60.1,53.6,30.11,North,10,3.0,3.0,79,0.00,,,0.00,Wunderground v.1.15,2013-02-20 13:00:00,
2013-02-20 08:05:00,60.2,53.7,30.11,NNW,346,3.0,4.0,79,0.00,,,0.00,Wunderground v.1.15,2013-02-20 13:05:00,
2013-02-20 08:10:00,60.2,53.7,30.12,NNW,344,4.0,4.0,79,0.00,,,0.00,Wunderground v.1.15,2013-02-20 13:10:00,
2013-02-20 08:20:00,60.2,54.0,30.12,North,355,3.0,5.0,80,0.00,,,0.00,Wunderground v.1.15,2013-02-20 13:20:00,
2013-02-20 08:25:00,60.1,54.6,30.12,NNE,13,4.0,5.0,82,0.00,,,0.00,Wunderground v.1.15,2013-02-20 13:25:00,
2013-02-20 08:30:00,60.2,55.0,30.12,NNE,31,3.0,3.0,83,0.00,,,0.00,Wunderground v.1.15,2013-02-20 13:30:00,
2013-02-20 08:35:00,60.0,54.8,30.12,NNE,26,2.0,4.0,83,0.00,,,0.00,Wunderground v.1.15,2013-02-20 13:35:00,
2013-02-20 08:40:00,60.0,54.8,30.12,North,355,2.0,3.0,83,0.00,,,0.00,Wunderground v.1.15,2013-02-20 13:40:00,
2013-02-20 08:45:00,59.9,54.7,30.11,North,355,2.0,3.0,83,0.00,,,0.00,Wunderground v.1.15,2013-02-20 13:45:00,
2013-02-20 08:50:00,60.0,54.8,30.11,NNE,16,2.0,2.0,83,0.00,,,0.00,Wunderground v.1.15,2013-02-20 13:50:00,
2013-02-20 09:00:00,60.2,55.0,30.12,North,355,2.0,12.0,83,0.00,,,0.00,Wunderground v.1.15,2013-02-20 14:00:00,
2013-02-20 09:05:00,60.1,54.9,30.12,NNE,17,3.0,12.0,83,0.00,,,0.00,Wunderground v.1.15,2013-02-20 14:05:00,
2013-02-20 09:10:00,59.9,54.7,30.12,North,355,4.0,4.0,83,0.00,,,0.00,Wunderground v.1.15,2013-02-20 14:10:00,
2013-02-20 09:15:00,60.1,54.6,30.12,NNE,16,3.0,12.0,82,0.00,,,0.00,Wunderground v.1.15,2013-02-20 14:15:00,
2013-02-20 09:25:00,61.3,55.8,30.12,NNE,13,4.0,5.0,82,0.00,,,0.00,Wunderground v.1.15,2013-02-20 14:25:00,
2013-02-20 09:30:00,60.9,54.7,30.12,NNE,21,4.0,4.0,80,0.00,,,0.00,Wunderground v.1.15,2013-02-20 14:30:00,
2013-02-20 09:35:00,60.7,54.5,30.12,North,5,3.0,12.0,80,0.00,,,0.00,Wunderground v.1.15,2013-02-20 14:35:00,
2013-02-20 09:40:00,60.7,54.8,30.12,NNW,342,4.0,12.0,81,0.00,,,0.00,Wunderground v.1.15,2013-02-20 14:40:00,
2013-02-20 09:45:00,60.3,54.4,30.12,North,5,5.0,12.0,81,0.00,,,0.00,Wunderground v.1.15,2013-02-20 14:45:00,
2013-02-20 09:50:00,61.0,54.8,30.12,North,355,4.0,4.0,80,0.00,,,0.00,Wunderground v.1.15,2013-02-20 14:50:00,
2013-02-20 09:55:00,60.8,54.6,30.12,North,355,3.0,12.0,80,0.00,,,0.00,Wunderground v.1.15,2013-02-20 14:55:00,
2013-02-20 10:05:00,62.1,55.2,30.12,North,5,3.0,12.0,78,0.00,,,0.00,Wunderground v.1.15,2013-02-20 15:05:00,
2013-02-20 10:10:00,61.6,54.3,30.12,North,360,3.0,12.0,77,0.00,,,0.00,Wunderground v.1.15,2013-02-20 15:10:00,
2013-02-20 10:15:00,63.3,56.0,30.12,NNE,17,3.0,12.0,77,0.00,,,0.00,Wunderground v.1.15,2013-02-20 15:15:00,
2013-02-20 10:25:00,62.7,54.7,30.12,North,10,3.0,5.0,75,0.00,,,0.00,Wunderground v.1.15,2013-02-20 15:25:00,
2013-02-20 10:30:00,62.9,54.9,30.13,NNE,15,2.0,2.0,75,0.00,,,0.00,Wunderground v.1.15,2013-02-20 15:30:00,
2013-02-20 10:35:00,63.9,54.7,30.13,North,5,1.0,12.0,72,0.00,,,0.00,Wunderground v.1.15,2013-02-20 15:35:00,
2013-02-20 10:40:00,63.8,53.4,30.13,NNE,27,2.0,2.0,69,0.00,,,0.00,Wunderground v.1.15,2013-02-20 15:40:00,
2013-02-20 10:50:00,65.2,53.6,30.12,North,11,4.0,4.0,66,0.00,,,0.00,Wunderground v.1.15,2013-02-20 15:50:00,
2013-02-20 10:55:00,65.3,54.1,30.11,NNW,344,4.0,12.0,67,0.00,,,0.00,Wunderground v.1.15,2013-02-20 15:55:00,
2013-02-20 11:00:00,65.9,54.2,30.12,NNE,15,3.0,3.0,66,0.00,,,0.00,Wunderground v.1.15,2013-02-20 16:00:00,
2013-02-20 11:05:00,65.9,53.8,30.12,NNE,16,2.0,12.0,65,0.00,,,0.00,Wunderground v.1.15,2013-02-20 16:05:00,
2013-02-20 11:10:00,65.8,54.1,30.12,NE,34,1.0,12.0,66,0.00,,,0.00,Wunderground v.1.15,2013-02-20 16:10:00,
2013-02-20 11:20:00,66.9,54.7,30.11,NNE,23,2.0,2.0,65,0.00,,,0.00,Wunderground v.1.15,2013-02-20 16:20:00,
2013-02-20 11:25:00,67.1,54.1,30.11,NE,35,2.0,12.0,63,0.00,,,0.00,Wunderground v.1.15,2013-02-20 16:25:00,
2013-02-20 11:30:00,67.5,53.6,30.10,North,360,2.0,12.0,61,0.00,,,0.00,Wunderground v.1.15,2013-02-20 16:30:00,
2013-02-20 11:35:00,67.0,53.5,30.11,NNE,24,2.0,12.0,62,0.00,,,0.00,Wunderground v.1.15,2013-02-20 16:35:00,
2013-02-20 11:45:00,68.1,54.1,30.10,North,5,1.0,12.0,61,0.00,,,0.00,Wunderground v.1.15,2013-02-20 16:45:00,
2013-02-20 11:50:00,68.0,54.5,30.09,North,11,1.0,1.0,62,0.00,,,0.00,Wunderground v.1.15,2013-02-20 16:50:00,
2013-02-20 11:55:00,68.1,55.0,30.09,North,5,1.0,2.0,63,0.00,,,0.00,Wunderground v.1.15,2013-02-20 16:55:00,
2013-02-20 12:00:00,67.5,54.5,30.09,NNE,30,1.0,1.0,63,0.00,,,0.00,Wunderground v.1.15,2013-02-20 17:00:00,
2013-02-20 12:05:00,68.7,54.7,30.08,ESE,117,0.0,2.0,61,0.00,,,0.00,Wunderground v.1.15,2013-02-20 17:05:00,
2013-02-20 12:10:00,69.8,57.1,30.08,NNE,22,0.0,12.0,64,0.00,,,0.00,Wunderground v.1.15,2013-02-20 17:10:00,
2013-02-20 12:15:00,69.5,55.5,30.08,NNE,17,1.0,12.0,61,0.00,,,0.00,Wunderground v.1.15,2013-02-20 17:15:00,
2013-02-20 12:20:00,69.5,55.5,30.07,NNE,32,1.0,1.0,61,0.00,,,0.00,Wunderground v.1.15,2013-02-20 17:20:00,
2013-02-20 12:25:00,69.3,55.7,30.07,NNE,18,0.0,2.0,62,0.00,,,0.00,Wunderground v.1.15,2013-02-20 17:25:00,
2013-02-20 12:35:00,70.1,54.6,30.06,NNW,344,2.0,12.0,58,0.00,,,0.00,Wunderground v.1.15,2013-02-20 17:35:00,
2013-02-20 12:40:00,70.7,55.2,30.05,NNE,16,3.0,12.0,58,0.00,,,0.00,Wunderground v.1.15,2013-02-20 17:40:00,
2013-02-20 12:45:00,69.9,54.9,30.05,NNE,26,2.0,12.0,59,0.00,,,0.00,Wunderground v.1.15,2013-02-20 17:45:00,
2013-02-20 13:00:00,72.4,56.3,30.05,North,11,1.0,12.0,57,0.00,,,0.00,Wunderground v.1.15,2013-02-20 18:00:00,
2013-02-20 13:10:00,72.5,56.4,30.04,North,360,2.0,2.0,57,0.00,,,0.00,Wunderground v.1.15,2013-02-20 18:10:00,
2013-02-20 13:15:00,72.4,55.8,30.04,North,355,2.0,3.0,56,0.00,,,0.00,Wunderground v.1.15,2013-02-20 18:15:00,
2013-02-20 13:20:00,71.4,55.9,30.04,NNE,13,2.0,2.0,58,0.00,,,0.00,Wunderground v.1.15,2013-02-20 18:20:00,
2013-02-20 13:25:00,71.4,55.4,30.03,NNE,16,1.0,12.0,57,0.00,,,0.00,Wunderground v.1.15,2013-02-20 18:25:00,
2013-02-20 13:30:00,71.9,55.8,30.03,WNW,300,1.0,1.0,57,0.00,,,0.00,Wunderground v.1.15,2013-02-20 18:30:00,
2013-02-20 13:35:00,72.7,57.1,30.03,NNW,333,1.0,12.0,58,0.00,,,0.00,Wunderground v.1.15,2013-02-20 18:35:00,
2013-02-20 13:40:00,72.4,56.8,30.02,NNE,15,1.0,12.0,58,0.00,,,0.00,Wunderground v.1.15,2013-02-20 18:40:00,
2013-02-20 13:50:00,71.8,56.2,30.02,North,360,1.0,1.0,58,0.00,,,0.00,Wunderground v.1.15,2013-02-20 18:50:00,
2013-02-20 13:55:00,71.7,56.1,30.02,North,360,1.0,12.0,58,0.00,,,0.00,Wunderground v.1.15,2013-02-20 18:55:00,
2013-02-20 14:00:00,72.1,57.0,30.02,North,360,1.0,1.0,59,0.00,,,0.00,Wunderground v.1.15,2013-02-20 19:00:00,
2013-02-20 14:05:00,72.5,56.4,30.02,North,360,1.0,12.0,57,0.00,,,0.00,Wunderground v.1.15,2013-02-20 19:05:00,
2013-02-20 14:10:00,73.0,57.8,30.01,North,360,0.0,12.0,59,0.00,,,0.00,Wunderground v.1.15,2013-02-20 19:10:00,
2013-02-20 14:15:00,72.0,55.9,30.01,North,360,0.0,12.0,57,0.00,,,0.00,Wunderground v.1.15,2013-02-20 19:15:00,
2013-02-20 14:20:00,72.6,57.4,30.01,North,360,0.0,12.0,59,0.00,,,0.00,Wunderground v.1.15,2013-02-20 19:20:00,
2013-02-20 14:25:00,72.8,57.2,30.02,NNW,337,0.0,12.0,58,0.00,,,0.00,Wunderground v.1.15,2013-02-20 19:25:00,
2013-02-20 14:30:00,72.1,56.0,30.02,North,351,1.0,1.0,57,0.00,,,0.00,Wunderground v.1.15,2013-02-20 19:30:00,
2013-02-20 14:40:00,72.5,56.9,30.01,North,355,1.0,1.0,58,0.00,,,0.00,Wunderground v.1.15,2013-02-20 19:40:00,
2013-02-20 14:45:00,72.3,57.6,30.01,North,355,1.0,12.0,60,0.00,,,0.00,Wunderground v.1.15,2013-02-20 19:45:00,
2013-02-20 14:50:00,72.4,57.3,30.01,North,355,0.0,12.0,59,0.00,,,0.00,Wunderground v.1.15,2013-02-20 19:50:00,
2013-02-20 15:00:00,71.8,56.7,30.01,North,355,0.0,12.0,59,0.00,,,0.00,Wunderground v.1.15,2013-02-20 20:00:00,
2013-02-20 16:10:00,72.5,57.4,30.01,North,355,1.0,1.0,59,0.00,,,0.00,Wunderground v.1.15,2013-02-20 21:10:00,
2013-02-20 16:15:00,72.2,57.1,30.01,NNE,17,1.0,1.0,59,0.00,,,0.00,Wunderground v.1.15,2013-02-20 21:15:00,
2013-02-20 16:20:00,72.2,57.5,30.02,North,355,3.0,5.0,60,0.00,,,0.00,Wunderground v.1.15,2013-02-20 21:20:00,
2013-02-20 16:30:00,72.2,58.0,30.02,North,355,3.0,3.0,61,0.00,,,0.00,Wunderground v.1.15,2013-02-20 21:30:00,
2013-02-20 16:35:00,71.9,57.7,30.02,North,350,2.0,3.0,61,0.00,,,0.00,Wunderground v.1.15,2013-02-20 21:35:00,
2013-02-20 16:40:00,71.8,57.6,30.03,North,350,1.0,1.0,61,0.00,,,0.00,Wunderground v.1.15,2013-02-20 21:40:00,
2013-02-20 16:50:00,71.3,57.6,30.03,North,355,2.0,2.0,62,0.00,,,0.00,Wunderground v.1.15,2013-02-20 21:50:00,
2013-02-20 16:55:00,71.2,57.1,30.03,North,355,0.0,2.0,61,0.00,,,0.00,Wunderground v.1.15,2013-02-20 21:55:00,
2013-02-20 17:00:00,71.2,57.1,30.03,North,355,1.0,3.0,61,0.00,,,0.00,Wunderground v.1.15,2013-02-20 22:00:00,
2013-02-20 17:05:00,71.2,57.1,30.04,NNW,347,1.0,3.0,61,0.00,,,0.00,Wunderground v.1.15,2013-02-20 22:05:00,
2013-02-20 17:10:00,71.2,56.6,30.04,NNW,347,0.0,3.0,60,0.00,,,0.00,Wunderground v.1.15,2013-02-20 22:10:00,
2013-02-20 17:15:00,71.1,57.0,30.04,NNW,342,0.0,3.0,61,0.00,,,0.00,Wunderground v.1.15,2013-02-20 22:15:00,
2013-02-20 17:25:00,70.8,56.2,30.04,NNW,333,0.0,3.0,60,0.00,,,0.00,Wunderground v.1.15,2013-02-20 22:25:00,
2013-02-20 17:35:00,70.6,56.5,30.04,NNW,333,0.0,3.0,61,0.00,,,0.00,Wunderground v.1.15,2013-02-20 22:35:00,
2013-02-20 17:40:00,70.5,56.4,30.04,NNW,333,0.0,3.0,61,0.00,,,0.00,Wunderground v.1.15,2013-02-20 22:40:00,
2013-02-20 17:45:00,70.4,56.3,30.03,NNW,333,0.0,3.0,61,0.00,,,0.00,Wunderground v.1.15,2013-02-20 22:45:00,
2013-02-20 17:50:00,70.3,56.2,30.02,North,349,1.0,3.0,61,0.00,,,0.00,Wunderground v.1.15,2013-02-20 22:50:00,
2013-02-20 17:55:00,70.1,56.0,30.02,North,349,1.0,3.0,61,0.00,,,0.00,Wunderground v.1.15,2013-02-20 22:55:00,
2013-02-20 18:00:00,69.9,55.8,30.01,North,349,0.0,3.0,61,0.00,,,0.00,Wunderground v.1.15,2013-02-20 23:00:00,
2013-02-20 18:05:00,69.7,56.1,30.01,North,349,0.0,3.0,62,0.00,,,0.00,Wunderground v.1.15,2013-02-20 23:05:00,
2013-02-20 18:10:00,69.6,56.0,30.02,North,349,0.0,3.0,62,0.00,,,0.00,Wunderground v.1.15,2013-02-20 23:10:00,
2013-02-20 18:15:00,69.4,56.3,30.02,North,349,0.0,3.0,63,0.00,,,0.00,Wunderground v.1.15,2013-02-20 23:15:00,
2013-02-20 18:20:00,69.2,56.1,30.03,North,349,0.0,3.0,63,0.00,,,0.00,Wunderground v.1.15,2013-02-20 23:20:00,
2013-02-20 18:40:00,67.8,55.6,30.03,North,349,0.0,3.0,65,0.00,,,0.00,Wunderground v.1.15,2013-02-20 23:40:00,
2013-02-20 18:50:00,67.1,55.8,30.05,North,349,0.0,3.0,67,0.00,,,0.00,Wunderground v.1.15,2013-02-20 23:50:00,
2013-02-20 18:55:00,66.6,55.3,30.05,North,349,0.0,3.0,67,0.00,,,0.00,Wunderground v.1.15,2013-02-20 23:55:00,
2013-02-20 19:00:00,66.0,55.1,30.05,North,5,0.0,3.0,68,0.00,,,0.00,Wunderground v.1.15,2013-02-21 00:00:00,
2013-02-20 19:05:00,65.6,55.2,30.05,North,5,0.0,3.0,69,0.00,,,0.00,Wunderground v.1.15,2013-02-21 00:05:00,
2013-02-20 19:10:00,65.3,54.9,30.06,North,5,0.0,3.0,69,0.00,,,0.00,Wunderground v.1.15,2013-02-21 00:10:00,
2013-02-20 19:15:00,65.0,54.6,30.06,North,5,0.0,3.0,69,0.00,,,0.00,Wunderground v.1.15,2013-02-21 00:15:00,
2013-02-20 19:20:00,64.8,54.0,30.05,NE,44,0.0,3.0,68,0.00,,,0.00,Wunderground v.1.15,2013-02-21 00:20:00,
2013-02-20 19:25:00,64.6,53.8,30.06,NE,52,1.0,3.0,68,0.00,,,0.00,Wunderground v.1.15,2013-02-21 00:25:00,
2013-02-20 19:30:00,64.4,53.6,30.05,East,86,1.0,1.0,68,0.00,,,0.00,Wunderground v.1.15,2013-02-21 00:30:00,
2013-02-20 19:35:00,64.2,53.8,30.06,NE,37,1.0,2.0,69,0.00,,,0.00,Wunderground v.1.15,2013-02-21 00:35:00,
2013-02-20 19:45:00,63.7,53.3,30.06,NE,35,0.0,3.0,69,0.00,,,0.00,Wunderground v.1.15,2013-02-21 00:45:00,
2013-02-20 19:50:00,63.4,53.0,30.07,NE,35,0.0,3.0,69,0.00,,,0.00,Wunderground v.1.15,2013-02-21 00:50:00,
2013-02-20 20:00:00,62.8,52.9,30.07,NE,34,0.0,3.0,70,0.00,,,0.00,Wunderground v.1.15,2013-02-21 01:00:00,
2013-02-20 20:05:00,62.4,52.9,30.07,NE,34,0.0,3.0,71,0.00,,,0.00,Wunderground v.1.15,2013-02-21 01:05:00,
2013-02-20 20:10:00,62.0,52.9,30.07,NE,34,0.0,3.0,72,0.00,,,0.00,Wunderground v.1.15,2013-02-21 01:10:00,
2013-02-20 20:15:00,61.7,52.6,30.08,NE,34,0.0,3.0,72,0.00,,,0.00,Wunderground v.1.15,2013-02-21 01:15:00,
2013-02-20 20:25:00,61.0,52.3,30.08,NE,34,0.0,3.0,73,0.00,,,0.00,Wunderground v.1.15,2013-02-21 01:25:00,
2013-02-20 20:30:00,60.7,52.4,30.08,NE,34,0.0,3.0,74,0.00,,,0.00,Wunderground v.1.15,2013-02-21 01:30:00,
2013-02-20 20:35:00,60.3,52.3,30.08,NE,34,0.0,3.0,75,0.00,,,0.00,Wunderground v.1.15,2013-02-21 01:35:00,
2013-02-20 20:40:00,60.0,52.1,30.08,NE,34,0.0,3.0,75,0.00,,,0.00,Wunderground v.1.15,2013-02-21 01:40:00,
2013-02-20 20:45:00,59.7,52.1,30.09,NE,34,0.0,3.0,76,0.00,,,0.00,Wunderground v.1.15,2013-02-21 01:45:00,
2013-02-20 20:50:00,59.4,52.2,30.09,NNE,30,1.0,3.0,77,0.00,,,0.00,Wunderground v.1.15,2013-02-21 01:50:00,
2013-02-20 21:20:00,58.2,51.7,30.08,NNE,16,0.0,5.0,79,0.00,,,0.00,Wunderground v.1.15,2013-02-21 02:20:00,
2013-02-20 21:25:00,58.0,51.9,30.09,NNE,16,1.0,5.0,80,0.00,,,0.00,Wunderground v.1.15,2013-02-21 02:25:00,
2013-02-20 21:30:00,58.0,51.9,30.09,NNE,17,0.0,3.0,80,0.00,,,0.00,Wunderground v.1.15,2013-02-21 02:30:00,
2013-02-20 21:35:00,57.9,51.8,30.09,NNE,17,0.0,3.0,80,0.00,,,0.00,Wunderground v.1.15,2013-02-21 02:35:00,
2013-02-20 21:40:00,57.7,51.9,30.09,NNE,16,0.0,3.0,81,0.00,,,0.00,Wunderground v.1.15,2013-02-21 02:40:00,
2013-02-20 21:45:00,57.5,51.4,30.09,NNE,17,0.0,3.0,80,0.00,,,0.00,Wunderground v.1.15,2013-02-21 02:45:00,
2013-02-20 21:50:00,57.2,51.1,30.09,NNE,17,0.0,3.0,80,0.00,,,0.00,Wunderground v.1.15,2013-02-21 02:50:00,
2013-02-20 21:55:00,57.0,51.2,30.09,NNE,17,0.0,3.0,81,0.00,,,0.00,Wunderground v.1.15,2013-02-21 02:55:00,
2013-02-20 22:05:00,56.8,51.4,30.09,NNE,17,0.0,3.0,82,0.00,,,0.00,Wunderground v.1.15,2013-02-21 03:05:00,
2013-02-20 22:15:00,56.5,51.4,30.09,NNE,17,0.0,3.0,83,0.00,,,0.00,Wunderground v.1.15,2013-02-21 03:15:00,
2013-02-20 22:20:00,56.5,51.4,30.09,NNE,17,0.0,3.0,83,0.00,,,0.00,Wunderground v.1.15,2013-02-21 03:20:00,
2013-02-20 22:25:00,56.4,51.3,30.08,NNE,17,0.0,3.0,83,0.00,,,0.00,Wunderground v.1.15,2013-02-21 03:25:00,
2013-02-20 22:30:00,56.4,51.3,30.08,NNE,17,0.0,3.0,83,0.00,,,0.00,Wunderground v.1.15,2013-02-21 03:30:00,
2013-02-20 22:35:00,56.2,51.1,30.08,NNE,17,0.0,3.0,83,0.00,,,0.00,Wunderground v.1.15,2013-02-21 03:35:00,
2013-02-20 22:40:00,56.1,51.0,30.08,NNE,17,0.0,3.0,83,0.00,,,0.00,Wunderground v.1.15,2013-02-21 03:40:00,
2013-02-20 22:50:00,55.8,50.7,30.07,NNE,17,0.0,3.0,83,0.00,,,0.00,Wunderground v.1.15,2013-02-21 03:50:00,
2013-02-20 22:55:00,55.6,50.2,30.07,NNE,17,0.0,3.0,82,0.00,,,0.00,Wunderground v.1.15,2013-02-21 03:55:00,
2013-02-20 23:00:00,55.3,49.9,30.07,NNE,17,0.0,3.0,82,0.00,,,0.00,Wunderground v.1.15,2013-02-21 04:00:00,
2013-02-20 23:05:00,55.0,49.6,30.06,NNE,17,0.0,3.0,82,0.00,,,0.00,Wunderground v.1.15,2013-02-21 04:05:00,
2013-02-20 23:10:00,54.8,49.7,30.06,NNE,17,0.0,3.0,83,0.00,,,0.00,Wunderground v.1.15,2013-02-21 04:10:00,
2013-02-20 23:20:00,54.8,50.4,30.06,NNE,17,0.0,3.0,85,0.00,,,0.00,Wunderground v.1.15,2013-02-21 04:20:00,
2013-02-20 23:30:00,54.7,50.6,30.07,NNE,17,0.0,3.0,86,0.00,,,0.00,Wunderground v.1.15,2013-02-21 04:30:00,
2013-02-20 23:35:00,54.6,50.5,30.07,NNE,17,0.0,3.0,86,0.00,,,0.00,Wunderground v.1.15,2013-02-21 04:35:00,
2013-02-20 23:40:00,54.4,50.3,30.07,NNE,16,0.0,3.0,86,0.00,,,0.00,Wunderground v.1.15,2013-02-21 04:40:00,
2013-02-20 23:45:00,54.3,50.2,30.07,NNE,17,0.0,3.0,86,0.00,,,0.00,Wunderground v.1.15,2013-02-21 04:45:00,
2013-02-20 23:50:00,54.1,50.0,30.07,NNE,17,0.0,3.0,86,0.00,,,0.00,Wunderground v.1.15,2013-02-21 04:50:00,
2013-02-20 23:55:00,53.9,49.8,30.07,NNE,17,0.0,3.0,86,0.00,,,0.00,Wunderground v.1.15,2013-02-21 04:55:00,